SDM1029 ULLI-ULAA
Flight info
| Callsign | SDM1029 |
|---|---|
| Flight time | 1h 14m |
| Altitude | 35000 |
| Route | RELNI1D RELNI T693 DISUP DCT MAKOG MAKOG3M |
| Aircraft | A319/M-RA73220/LB1 |
Departure
| Time | 2026-04-24 11:03 |
|---|---|
| Airport | Pulkovo Airport (ULLI) |
Arrival
| Time | 2026-04-24 12:17 |
|---|---|
| Airport | Talagi Airport (ULAA) |
| Time | Latitude | Longitude | Altitude | Speed | Heading |
|---|---|---|---|---|---|
| 2026-04-24 10:27 | 59.79671 | 30.26575 | 83 ft | 0 kts | 106° |
| 2026-04-24 10:52 | 59.79672 | 30.26570 | 82 ft | 3 kts | 106° |
| 2026-04-24 10:53 | 59.79677 | 30.26519 | 84 ft | 4 kts | 91° |
| 2026-04-24 10:53 | 59.79674 | 30.26468 | 86 ft | 4 kts | 62° |
| 2026-04-24 10:53 | 59.79659 | 30.26436 | 88 ft | 2 kts | 17° |
| 2026-04-24 10:53 | 59.79658 | 30.26435 | 88 ft | 0 kts | 17° |
| 2026-04-24 10:56 | 59.79672 | 30.26444 | 87 ft | 5 kts | 17° |
| 2026-04-24 10:56 | 59.79724 | 30.26475 | 82 ft | 11 kts | 17° |
| 2026-04-24 10:57 | 59.79808 | 30.26525 | 81 ft | 14 kts | 16° |
| 2026-04-24 10:57 | 59.79904 | 30.26581 | 80 ft | 15 kts | 16° |
| 2026-04-24 10:57 | 59.79997 | 30.26635 | 74 ft | 10 kts | 16° |
| 2026-04-24 10:57 | 59.80072 | 30.26679 | 77 ft | 12 kts | 16° |
| 2026-04-24 10:58 | 59.80157 | 30.26730 | 77 ft | 13 kts | 17° |
| 2026-04-24 10:58 | 59.80251 | 30.26785 | 73 ft | 15 kts | 16° |
| 2026-04-24 10:58 | 59.80351 | 30.26843 | 73 ft | 14 kts | 16° |
| 2026-04-24 10:58 | 59.80383 | 30.26944 | 72 ft | 8 kts | 102° |
| 2026-04-24 10:59 | 59.80369 | 30.27059 | 71 ft | 9 kts | 106° |
| 2026-04-24 10:59 | 59.80351 | 30.27179 | 75 ft | 9 kts | 106° |
| 2026-04-24 10:59 | 59.80331 | 30.27314 | 67 ft | 12 kts | 106° |
| 2026-04-24 10:59 | 59.80303 | 30.27504 | 75 ft | 17 kts | 107° |
| 2026-04-24 11:00 | 59.80269 | 30.27728 | 70 ft | 17 kts | 106° |
| 2026-04-24 11:00 | 59.80236 | 30.27951 | 73 ft | 17 kts | 107° |
| 2026-04-24 11:00 | 59.80202 | 30.28175 | 75 ft | 17 kts | 107° |
| 2026-04-24 11:00 | 59.80169 | 30.28398 | 69 ft | 17 kts | 106° |
| 2026-04-24 11:01 | 59.80176 | 30.28602 | 68 ft | 15 kts | 47° |
| 2026-04-24 11:01 | 59.80239 | 30.28741 | 71 ft | 13 kts | 49° |
| 2026-04-24 11:01 | 59.80301 | 30.28857 | 72 ft | 12 kts | 15° |
| 2026-04-24 11:01 | 59.80343 | 30.28787 | 70 ft | 0 kts | 285° |
| 2026-04-24 11:02 | 59.80343 | 30.28786 | 70 ft | 0 kts | 285° |
| 2026-04-24 11:02 | 59.80364 | 30.28647 | 69 ft | 39 kts | 287° |
| 2026-04-24 11:02 | 59.80529 | 30.27544 | 74 ft | 124 kts | 287° |
| 2026-04-24 11:02 | 59.80843 | 30.25492 | 251 ft | 171 kts | 288° |
| 2026-04-24 11:03 | 59.81183 | 30.23207 | 1063 ft | 173 kts | 287° |
| 2026-04-24 11:03 | 59.81513 | 30.20919 | 1994 ft | 172 kts | 288° |
| 2026-04-24 11:03 | 59.81852 | 30.18576 | 2641 ft | 185 kts | 290° |
| 2026-04-24 11:03 | 59.82241 | 30.15972 | 3151 ft | 207 kts | 290° |
| 2026-04-24 11:04 | 59.82656 | 30.13180 | 4013 ft | 213 kts | 289° |
| 2026-04-24 11:04 | 59.83079 | 30.10324 | 4915 ft | 218 kts | 289° |
| 2026-04-24 11:04 | 59.83505 | 30.07437 | 5795 ft | 223 kts | 288° |
| 2026-04-24 11:04 | 59.83943 | 30.04457 | 6673 ft | 227 kts | 289° |
| 2026-04-24 11:05 | 59.84514 | 30.01541 | 7567 ft | 227 kts | 307° |
| 2026-04-24 11:05 | 59.85710 | 29.99544 | 8480 ft | 229 kts | 337° |
| 2026-04-24 11:05 | 59.87296 | 29.99173 | 9420 ft | 236 kts | 8° |
| 2026-04-24 11:05 | 59.88891 | 30.00030 | 10303 ft | 238 kts | 13° |
| 2026-04-24 11:06 | 59.90483 | 30.00970 | 11207 ft | 239 kts | 13° |
| 2026-04-24 11:06 | 59.92051 | 30.02094 | 12088 ft | 245 kts | 26° |
| 2026-04-24 11:06 | 59.93261 | 30.04578 | 12925 ft | 263 kts | 56° |
| 2026-04-24 11:06 | 59.93624 | 30.08266 | 13710 ft | 287 kts | 89° |
| 2026-04-24 11:07 | 59.92650 | 30.16224 | 15101 ft | 303 kts | 99° |
| 2026-04-24 11:07 | 59.91882 | 30.20212 | 15714 ft | 318 kts | 109° |
| 2026-04-24 11:07 | 59.90875 | 30.24319 | 15890 ft | 341 kts | 108° |
| 2026-04-24 11:08 | 59.89837 | 30.28736 | 16121 ft | 360 kts | 107° |
| 2026-04-24 11:08 | 59.89014 | 30.33442 | 16656 ft | 359 kts | 95° |
| 2026-04-24 11:08 | 59.88615 | 30.38394 | 16948 ft | 367 kts | 84° |
| 2026-04-24 11:08 | 59.88488 | 30.43489 | 17327 ft | 378 kts | 84° |
| 2026-04-24 11:09 | 59.88347 | 30.48831 | 17987 ft | 384 kts | 84° |
| 2026-04-24 11:09 | 59.88199 | 30.54102 | 18533 ft | 388 kts | 83° |
| 2026-04-24 11:09 | 59.88059 | 30.59491 | 19100 ft | 389 kts | 80° |
| 2026-04-24 11:09 | 59.88244 | 30.64800 | 19671 ft | 380 kts | 69° |
| 2026-04-24 11:10 | 59.88852 | 30.69846 | 20262 ft | 371 kts | 59° |
| 2026-04-24 11:10 | 59.89831 | 30.74516 | 20865 ft | 361 kts | 50° |
| 2026-04-24 11:10 | 59.91117 | 30.78739 | 21482 ft | 354 kts | 44° |
| 2026-04-24 11:10 | 59.92488 | 30.82842 | 22101 ft | 356 kts | 44° |
| 2026-04-24 11:11 | 59.93863 | 30.86960 | 22706 ft | 358 kts | 43° |
| 2026-04-24 11:11 | 59.95242 | 30.91106 | 23281 ft | 359 kts | 43° |
| 2026-04-24 11:11 | 59.96622 | 30.95272 | 23745 ft | 362 kts | 43° |
| 2026-04-24 11:11 | 59.98013 | 30.99484 | 24191 ft | 364 kts | 43° |
| 2026-04-24 11:12 | 59.99411 | 31.03726 | 24613 ft | 366 kts | 43° |
| 2026-04-24 11:12 | 60.00813 | 31.07992 | 25029 ft | 369 kts | 43° |
| 2026-04-24 11:12 | 60.02227 | 31.12298 | 25445 ft | 371 kts | 43° |
| 2026-04-24 11:12 | 60.03646 | 31.16633 | 25909 ft | 374 kts | 43° |
| 2026-04-24 11:13 | 60.05073 | 31.21007 | 26311 ft | 377 kts | 43° |
| 2026-04-24 11:13 | 60.06510 | 31.25413 | 26711 ft | 379 kts | 43° |
| 2026-04-24 11:13 | 60.07957 | 31.29850 | 27109 ft | 382 kts | 43° |
| 2026-04-24 11:13 | 60.09412 | 31.34328 | 27490 ft | 385 kts | 43° |
| 2026-04-24 11:14 | 60.10854 | 31.38779 | 27892 ft | 387 kts | 43° |
| 2026-04-24 11:14 | 60.12350 | 31.43369 | 28278 ft | 387 kts | 41° |
| 2026-04-24 11:14 | 60.14003 | 31.47412 | 28631 ft | 375 kts | 33° |
| 2026-04-24 11:14 | 60.15929 | 31.50824 | 28994 ft | 364 kts | 25° |
| 2026-04-24 11:15 | 60.18042 | 31.53523 | 29357 ft | 356 kts | 18° |
| 2026-04-24 11:15 | 60.20281 | 31.55571 | 29700 ft | 353 kts | 14° |
| 2026-04-24 11:15 | 60.22553 | 31.57497 | 29984 ft | 355 kts | 14° |
| 2026-04-24 11:15 | 60.24837 | 31.59442 | 30240 ft | 358 kts | 14° |
| 2026-04-24 11:16 | 60.27145 | 31.61416 | 30519 ft | 362 kts | 14° |
| 2026-04-24 11:16 | 60.29474 | 31.63423 | 30729 ft | 366 kts | 14° |
| 2026-04-24 11:16 | 60.31822 | 31.65455 | 30959 ft | 369 kts | 15° |
| 2026-04-24 11:16 | 60.34184 | 31.67499 | 31255 ft | 370 kts | 15° |
| 2026-04-24 11:17 | 60.36548 | 31.69545 | 31586 ft | 370 kts | 15° |
| 2026-04-24 11:17 | 60.38918 | 31.71596 | 31903 ft | 371 kts | 15° |
| 2026-04-24 11:17 | 60.41292 | 31.73651 | 32221 ft | 372 kts | 15° |
| 2026-04-24 11:17 | 60.43671 | 31.75711 | 32526 ft | 373 kts | 15° |
| 2026-04-24 11:18 | 60.46056 | 31.77785 | 32839 ft | 373 kts | 15° |
| 2026-04-24 11:18 | 60.48444 | 31.79869 | 33154 ft | 374 kts | 15° |
| 2026-04-24 11:18 | 60.50841 | 31.81965 | 33469 ft | 375 kts | 15° |
| 2026-04-24 11:18 | 60.53238 | 31.84067 | 33784 ft | 376 kts | 16° |
| 2026-04-24 11:19 | 60.55621 | 31.86155 | 33966 ft | 379 kts | 16° |
| 2026-04-24 11:19 | 60.58055 | 31.88284 | 34136 ft | 382 kts | 16° |
| 2026-04-24 11:19 | 60.60502 | 31.90433 | 34332 ft | 385 kts | 17° |
| 2026-04-24 11:19 | 60.62966 | 31.92606 | 34530 ft | 387 kts | 17° |
| 2026-04-24 11:20 | 60.65442 | 31.94792 | 34715 ft | 389 kts | 17° |
| 2026-04-24 11:20 | 60.67928 | 31.96990 | 34902 ft | 390 kts | 17° |
| 2026-04-24 11:20 | 60.70482 | 31.98803 | 35080 ft | 386 kts | 9° |
| 2026-04-24 11:20 | 60.73118 | 31.99700 | 35254 ft | 383 kts | 0° |
| 2026-04-24 11:21 | 60.75786 | 31.99927 | 35426 ft | 384 kts | 359° |
| 2026-04-24 11:21 | 60.78464 | 32.00119 | 35592 ft | 386 kts | 359° |
| 2026-04-24 11:21 | 60.81161 | 32.00320 | 35758 ft | 388 kts | 359° |
| 2026-04-24 11:21 | 60.83867 | 32.00527 | 35932 ft | 390 kts | 359° |
| 2026-04-24 11:22 | 60.86584 | 32.00738 | 36083 ft | 392 kts | 360° |
| 2026-04-24 11:22 | 60.89313 | 32.00949 | 36240 ft | 394 kts | 360° |
| 2026-04-24 11:22 | 60.92060 | 32.01165 | 36394 ft | 395 kts | 0° |
| 2026-04-24 11:22 | 60.94794 | 32.01970 | 36555 ft | 400 kts | 11° |
| 2026-04-24 11:23 | 60.97432 | 32.03952 | 36647 ft | 408 kts | 22° |
| 2026-04-24 11:23 | 60.99860 | 32.07094 | 36662 ft | 417 kts | 33° |
| 2026-04-24 11:23 | 61.04134 | 32.15332 | 36662 ft | 422 kts | 37° |
| 2026-04-24 11:24 | 61.08390 | 32.23673 | 36661 ft | 422 kts | 37° |
| 2026-04-24 11:24 | 61.12654 | 32.32040 | 36654 ft | 423 kts | 37° |
| 2026-04-24 11:25 | 61.16894 | 32.40412 | 36661 ft | 424 kts | 37° |
| 2026-04-24 11:25 | 61.21162 | 32.48873 | 36660 ft | 424 kts | 38° |
| 2026-04-24 11:26 | 61.25424 | 32.57356 | 36653 ft | 424 kts | 38° |
| 2026-04-24 11:26 | 61.28986 | 32.64485 | 36649 ft | 424 kts | 38° |
| 2026-04-24 11:27 | 61.33232 | 32.73024 | 36693 ft | 424 kts | 38° |
| 2026-04-24 11:27 | 61.37480 | 32.81585 | 36669 ft | 425 kts | 38° |
| 2026-04-24 11:28 | 61.41731 | 32.90174 | 36645 ft | 426 kts | 38° |
| 2026-04-24 11:28 | 61.45977 | 32.98808 | 36636 ft | 426 kts | 38° |
| 2026-04-24 11:29 | 61.50222 | 33.07466 | 36629 ft | 426 kts | 38° |
| 2026-04-24 11:29 | 61.54465 | 33.16150 | 36630 ft | 426 kts | 38° |
| 2026-04-24 11:30 | 61.58707 | 33.24874 | 36639 ft | 427 kts | 39° |
| 2026-04-24 11:30 | 61.62954 | 33.33640 | 36627 ft | 429 kts | 39° |
| 2026-04-24 11:31 | 61.67183 | 33.42402 | 36622 ft | 429 kts | 39° |
| 2026-04-24 11:31 | 61.71431 | 33.51249 | 36622 ft | 430 kts | 39° |
| 2026-04-24 11:32 | 61.75679 | 33.60136 | 36621 ft | 430 kts | 39° |
| 2026-04-24 11:32 | 61.79929 | 33.69063 | 36645 ft | 431 kts | 39° |
| 2026-04-24 11:33 | 61.84185 | 33.78034 | 36625 ft | 432 kts | 39° |
| 2026-04-24 11:33 | 61.88450 | 33.87036 | 36610 ft | 433 kts | 39° |
| 2026-04-24 11:34 | 61.92714 | 33.96088 | 36607 ft | 434 kts | 39° |
| 2026-04-24 11:34 | 61.96971 | 34.05189 | 36610 ft | 435 kts | 40° |
| 2026-04-24 11:35 | 62.01230 | 34.14316 | 36642 ft | 435 kts | 40° |
| 2026-04-24 11:35 | 62.05502 | 34.23487 | 36622 ft | 436 kts | 40° |
| 2026-04-24 11:36 | 62.09775 | 34.32702 | 36616 ft | 437 kts | 40° |
| 2026-04-24 11:36 | 62.14046 | 34.41967 | 36610 ft | 438 kts | 40° |
| 2026-04-24 11:37 | 62.18311 | 34.51284 | 36614 ft | 438 kts | 40° |
| 2026-04-24 11:37 | 62.22574 | 34.60638 | 36614 ft | 439 kts | 40° |
| 2026-04-24 11:38 | 62.26839 | 34.70020 | 36623 ft | 440 kts | 41° |
| 2026-04-24 11:38 | 62.31121 | 34.79441 | 36610 ft | 441 kts | 41° |
| 2026-04-24 11:39 | 62.35374 | 34.88858 | 36610 ft | 442 kts | 41° |
| 2026-04-24 11:39 | 62.39648 | 34.98395 | 36602 ft | 442 kts | 41° |
| 2026-04-24 11:40 | 62.43918 | 35.07962 | 36608 ft | 443 kts | 41° |
| 2026-04-24 11:40 | 62.48200 | 35.17580 | 36608 ft | 445 kts | 42° |
| 2026-04-24 11:41 | 62.52487 | 35.27245 | 36609 ft | 445 kts | 42° |
| 2026-04-24 11:41 | 62.56771 | 35.36949 | 36594 ft | 446 kts | 42° |
| 2026-04-24 11:42 | 62.61053 | 35.46700 | 36602 ft | 446 kts | 42° |
| 2026-04-24 11:42 | 62.65333 | 35.56486 | 36594 ft | 446 kts | 42° |
| 2026-04-24 11:43 | 62.69602 | 35.66300 | 36618 ft | 447 kts | 43° |
| 2026-04-24 11:43 | 62.73878 | 35.76172 | 36606 ft | 448 kts | 43° |
| 2026-04-24 11:44 | 62.78148 | 35.86069 | 36598 ft | 448 kts | 43° |
| 2026-04-24 11:44 | 62.82419 | 35.95997 | 36584 ft | 448 kts | 43° |
| 2026-04-24 11:45 | 62.86680 | 36.05969 | 36589 ft | 449 kts | 43° |
| 2026-04-24 11:45 | 62.90905 | 36.15917 | 36611 ft | 449 kts | 43° |
| 2026-04-24 11:46 | 62.95166 | 36.25975 | 36602 ft | 450 kts | 43° |
| 2026-04-24 11:46 | 62.99432 | 36.36060 | 36589 ft | 450 kts | 43° |
| 2026-04-24 11:47 | 63.03689 | 36.46177 | 36584 ft | 450 kts | 44° |
| 2026-04-24 11:47 | 63.07933 | 36.56338 | 36580 ft | 451 kts | 44° |
| 2026-04-24 11:48 | 63.12170 | 36.66547 | 36583 ft | 451 kts | 44° |
| 2026-04-24 11:48 | 63.16413 | 36.76779 | 36583 ft | 451 kts | 44° |
| 2026-04-24 11:49 | 63.20644 | 36.87048 | 36583 ft | 451 kts | 44° |
| 2026-04-24 11:49 | 63.24836 | 36.97291 | 36585 ft | 451 kts | 44° |
| 2026-04-24 11:50 | 63.29053 | 37.07638 | 36582 ft | 452 kts | 44° |
| 2026-04-24 11:50 | 63.33268 | 37.18016 | 36596 ft | 452 kts | 44° |
| 2026-04-24 11:51 | 63.37480 | 37.28419 | 36594 ft | 453 kts | 44° |
| 2026-04-24 11:51 | 63.41686 | 37.38880 | 36587 ft | 453 kts | 45° |
| 2026-04-24 11:52 | 63.45894 | 37.49390 | 36569 ft | 454 kts | 45° |
| 2026-04-24 11:52 | 63.48001 | 37.54659 | 36325 ft | 454 kts | 45° |
| 2026-04-24 11:52 | 63.50102 | 37.59923 | 36083 ft | 453 kts | 45° |
| 2026-04-24 11:53 | 63.52198 | 37.65189 | 35841 ft | 453 kts | 45° |
| 2026-04-24 11:53 | 63.54288 | 37.70459 | 35605 ft | 453 kts | 45° |
| 2026-04-24 11:53 | 63.56375 | 37.75754 | 35391 ft | 453 kts | 45° |
| 2026-04-24 11:53 | 63.58463 | 37.81069 | 35151 ft | 454 kts | 45° |
| 2026-04-24 11:54 | 63.60565 | 37.86419 | 34334 ft | 460 kts | 45° |
| 2026-04-24 11:54 | 63.62693 | 37.91836 | 33446 ft | 465 kts | 45° |
| 2026-04-24 11:54 | 63.64845 | 37.97332 | 32544 ft | 468 kts | 45° |
| 2026-04-24 11:54 | 63.66976 | 38.02797 | 32037 ft | 461 kts | 45° |
| 2026-04-24 11:55 | 63.69083 | 38.08203 | 31427 ft | 457 kts | 45° |
| 2026-04-24 11:55 | 63.71142 | 38.13494 | 30846 ft | 453 kts | 45° |
| 2026-04-24 11:55 | 63.73206 | 38.18820 | 30273 ft | 448 kts | 45° |
| 2026-04-24 11:55 | 63.75243 | 38.24092 | 29703 ft | 444 kts | 45° |
| 2026-04-24 11:56 | 63.77266 | 38.29340 | 29087 ft | 440 kts | 45° |
| 2026-04-24 11:56 | 63.79262 | 38.34527 | 28506 ft | 434 kts | 46° |
| 2026-04-24 11:56 | 63.81230 | 38.39652 | 27966 ft | 429 kts | 46° |
| 2026-04-24 11:56 | 63.83169 | 38.44722 | 27432 ft | 424 kts | 46° |
| 2026-04-24 11:57 | 63.85087 | 38.49746 | 26903 ft | 418 kts | 46° |
| 2026-04-24 11:57 | 63.86979 | 38.54704 | 26404 ft | 414 kts | 46° |
| 2026-04-24 11:57 | 63.88849 | 38.59614 | 25891 ft | 409 kts | 46° |
| 2026-04-24 11:57 | 63.90701 | 38.64491 | 25403 ft | 405 kts | 47° |
| 2026-04-24 11:58 | 63.92533 | 38.69328 | 24938 ft | 402 kts | 47° |
| 2026-04-24 11:58 | 63.94350 | 38.74125 | 24473 ft | 399 kts | 47° |
| 2026-04-24 11:58 | 63.96149 | 38.78888 | 24006 ft | 396 kts | 47° |
| 2026-04-24 11:58 | 63.97940 | 38.83633 | 23549 ft | 394 kts | 47° |
| 2026-04-24 11:59 | 63.99721 | 38.88361 | 23088 ft | 393 kts | 49° |
| 2026-04-24 11:59 | 64.01494 | 38.93091 | 22561 ft | 391 kts | 49° |
| 2026-04-24 11:59 | 64.03245 | 38.97785 | 22096 ft | 386 kts | 49° |
| 2026-04-24 11:59 | 64.04975 | 39.02437 | 21629 ft | 383 kts | 50° |
| 2026-04-24 12:00 | 64.06518 | 39.07340 | 21226 ft | 378 kts | 59° |
| 2026-04-24 12:00 | 64.07713 | 39.12649 | 20771 ft | 374 kts | 66° |
| 2026-04-24 12:00 | 64.08821 | 39.17983 | 20366 ft | 370 kts | 67° |
| 2026-04-24 12:00 | 64.09919 | 39.23267 | 19941 ft | 367 kts | 67° |
| 2026-04-24 12:01 | 64.11011 | 39.28514 | 19518 ft | 364 kts | 67° |
| 2026-04-24 12:01 | 64.12093 | 39.33722 | 19096 ft | 361 kts | 67° |
| 2026-04-24 12:01 | 64.13166 | 39.38903 | 18681 ft | 359 kts | 67° |
| 2026-04-24 12:01 | 64.14229 | 39.44053 | 18264 ft | 357 kts | 68° |
| 2026-04-24 12:02 | 64.15269 | 39.49124 | 17861 ft | 355 kts | 68° |
| 2026-04-24 12:02 | 64.16312 | 39.54233 | 17406 ft | 353 kts | 68° |
| 2026-04-24 12:02 | 64.17347 | 39.59302 | 17010 ft | 349 kts | 68° |
| 2026-04-24 12:02 | 64.18372 | 39.64325 | 16610 ft | 346 kts | 68° |
| 2026-04-24 12:03 | 64.19384 | 39.69304 | 16210 ft | 343 kts | 68° |
| 2026-04-24 12:03 | 64.20389 | 39.74247 | 15836 ft | 341 kts | 68° |
| 2026-04-24 12:03 | 64.21386 | 39.79165 | 15448 ft | 338 kts | 68° |
| 2026-04-24 12:03 | 64.22375 | 39.84048 | 15044 ft | 336 kts | 68° |
| 2026-04-24 12:04 | 64.23355 | 39.88914 | 14668 ft | 334 kts | 68° |
| 2026-04-24 12:04 | 64.24325 | 39.93752 | 14290 ft | 333 kts | 68° |
| 2026-04-24 12:04 | 64.25291 | 39.98571 | 13914 ft | 331 kts | 68° |
| 2026-04-24 12:04 | 64.26253 | 40.03374 | 13534 ft | 330 kts | 68° |
| 2026-04-24 12:05 | 64.27210 | 40.08160 | 13121 ft | 329 kts | 68° |
| 2026-04-24 12:05 | 64.28163 | 40.12943 | 12714 ft | 327 kts | 67° |
| 2026-04-24 12:05 | 64.29107 | 40.17699 | 12313 ft | 325 kts | 67° |
| 2026-04-24 12:05 | 64.30043 | 40.22430 | 11918 ft | 323 kts | 67° |
| 2026-04-24 12:06 | 64.30970 | 40.27131 | 11520 ft | 321 kts | 67° |
| 2026-04-24 12:06 | 64.31895 | 40.31801 | 11120 ft | 320 kts | 67° |
| 2026-04-24 12:06 | 64.32812 | 40.36455 | 10721 ft | 318 kts | 68° |
| 2026-04-24 12:06 | 64.33720 | 40.41087 | 10319 ft | 316 kts | 68° |
| 2026-04-24 12:07 | 64.34620 | 40.45697 | 9922 ft | 314 kts | 67° |
| 2026-04-24 12:07 | 64.35510 | 40.50260 | 9665 ft | 307 kts | 68° |
| 2026-04-24 12:07 | 64.36378 | 40.54707 | 9469 ft | 300 kts | 68° |
| 2026-04-24 12:07 | 64.37235 | 40.59092 | 9405 ft | 299 kts | 68° |
| 2026-04-24 12:08 | 64.38093 | 40.63504 | 8959 ft | 303 kts | 67° |
| 2026-04-24 12:08 | 64.38948 | 40.67914 | 8585 ft | 300 kts | 66° |
| 2026-04-24 12:08 | 64.39805 | 40.72321 | 8121 ft | 300 kts | 66° |
| 2026-04-24 12:08 | 64.40653 | 40.76701 | 7772 ft | 296 kts | 66° |
| 2026-04-24 12:09 | 64.41486 | 40.81017 | 7347 ft | 294 kts | 65° |
| 2026-04-24 12:09 | 64.42314 | 40.85321 | 6916 ft | 293 kts | 64° |
| 2026-04-24 12:09 | 64.43134 | 40.89601 | 6533 ft | 289 kts | 64° |
| 2026-04-24 12:09 | 64.43926 | 40.93764 | 6187 ft | 285 kts | 66° |
| 2026-04-24 12:10 | 64.44720 | 40.97958 | 5842 ft | 281 kts | 65° |
| 2026-04-24 12:10 | 64.45483 | 41.01974 | 5686 ft | 263 kts | 65° |
| 2026-04-24 12:10 | 64.46199 | 41.05734 | 5436 ft | 248 kts | 65° |
| 2026-04-24 12:11 | 64.48449 | 41.11193 | 4363 ft | 239 kts | 15° |
| 2026-04-24 12:11 | 64.50073 | 41.11713 | 3698 ft | 237 kts | 351° |
| 2026-04-24 12:11 | 64.51615 | 41.10680 | 3248 ft | 227 kts | 335° |
| 2026-04-24 12:11 | 64.53040 | 41.09416 | 3037 ft | 211 kts | 338° |
| 2026-04-24 12:12 | 64.54361 | 41.08262 | 2941 ft | 196 kts | 338° |
| 2026-04-24 12:12 | 64.55563 | 41.07220 | 2856 ft | 174 kts | 338° |
| 2026-04-24 12:12 | 64.56611 | 41.06312 | 2768 ft | 146 kts | 338° |
| 2026-04-24 12:12 | 64.57472 | 41.05373 | 2696 ft | 131 kts | 325° |
| 2026-04-24 12:13 | 64.58107 | 41.03909 | 2643 ft | 128 kts | 308° |
| 2026-04-24 12:13 | 64.58426 | 41.01998 | 2502 ft | 130 kts | 278° |
| 2026-04-24 12:13 | 64.58533 | 40.99957 | 2378 ft | 125 kts | 285° |
| 2026-04-24 12:13 | 64.58669 | 40.97961 | 2222 ft | 124 kts | 284° |
| 2026-04-24 12:14 | 64.58789 | 40.95978 | 2054 ft | 123 kts | 283° |
| 2026-04-24 12:14 | 64.58899 | 40.94004 | 1885 ft | 123 kts | 282° |
| 2026-04-24 12:14 | 64.58969 | 40.92698 | 1774 ft | 123 kts | 282° |
| 2026-04-24 12:14 | 64.59072 | 40.90725 | 1598 ft | 122 kts | 281° |
| 2026-04-24 12:15 | 64.59173 | 40.88762 | 1427 ft | 122 kts | 281° |
| 2026-04-24 12:15 | 64.59305 | 40.86174 | 1191 ft | 121 kts | 281° |
| 2026-04-24 12:15 | 64.59371 | 40.84851 | 1063 ft | 123 kts | 280° |
| 2026-04-24 12:15 | 64.59470 | 40.82875 | 868 ft | 122 kts | 279° |
| 2026-04-24 12:16 | 64.59569 | 40.80904 | 684 ft | 123 kts | 279° |
| 2026-04-24 12:16 | 64.59668 | 40.78908 | 514 ft | 125 kts | 278° |
| 2026-04-24 12:16 | 64.59768 | 40.76900 | 338 ft | 125 kts | 278° |
| 2026-04-24 12:16 | 64.59870 | 40.74895 | 145 ft | 124 kts | 279° |
| 2026-04-24 12:17 | 64.59968 | 40.72925 | 40 ft | 112 kts | 277° |
| 2026-04-24 12:17 | 64.60040 | 40.71467 | 38 ft | 66 kts | 275° |
| 2026-04-24 12:17 | 64.60076 | 40.70699 | 37 ft | 39 kts | 276° |
| 2026-04-24 12:17 | 64.60089 | 40.70239 | 36 ft | 15 kts | 239° |
| 2026-04-24 12:18 | 64.60033 | 40.70210 | 39 ft | 5 kts | 191° |
| 2026-04-24 12:18 | 64.60001 | 40.70198 | 39 ft | 5 kts | 188° |
| 2026-04-24 12:18 | 64.59972 | 40.70187 | 40 ft | 4 kts | 188° |
| 2026-04-24 12:18 | 64.59947 | 40.70186 | 40 ft | 3 kts | 181° |
| 2026-04-24 12:19 | 64.59926 | 40.70185 | 40 ft | 3 kts | 180° |
| 2026-04-24 12:19 | 64.59899 | 40.70201 | 40 ft | 7 kts | 147° |
| 2026-04-24 12:19 | 64.59877 | 40.70420 | 40 ft | 20 kts | 93° |
| 2026-04-24 12:19 | 64.59862 | 40.70727 | 40 ft | 18 kts | 97° |
| 2026-04-24 12:20 | 64.59849 | 40.71008 | 40 ft | 17 kts | 96° |
| 2026-04-24 12:20 | 64.59831 | 40.71255 | 40 ft | 14 kts | 124° |
| 2026-04-24 12:20 | 64.59751 | 40.71268 | 40 ft | 10 kts | 180° |
| 2026-04-24 12:20 | 64.59718 | 40.71376 | 40 ft | 7 kts | 123° |
| 2026-04-24 12:21 | 64.59682 | 40.71393 | 40 ft | 4 kts | 185° |
| 2026-04-24 12:21 | 64.59664 | 40.71389 | 40 ft | 0 kts | 186° |